Time;durP1;ratioP1;P1;durP2;ratioP2;P2;SDS_P1;SDS_P2;PMS_P1;PMS_P2;Temp;Humidity;BMP_temperature;BMP_pressure;BME280_temperature;BME280_humidity;BME280_pressure;Samples;Min_cycle;Max_cycle;Signal;HPM_P1;HPM_P2
2023/04/08 00:00:20;;;;;;;11.38;8.80;;;;;;;;;;5076200;28;20079;-60
2023/04/08 00:02:46;;;;;;;9.60;7.95;;;;;;;;;;5076034;28;20048;-60
2023/04/08 00:05:12;;;;;;;13.05;10.43;;;;;;;;;;5075518;28;20462;-60
2023/04/08 00:07:38;;;;;;;13.38;9.55;;;;;;;;;;5075446;28;20025;-60
2023/04/08 00:10:05;;;;;;;12.00;9.98;;;;;;;;;;5075473;28;20105;-60
2023/04/08 00:12:31;;;;;;;11.57;8.73;;;;;;;;;;5075197;28;20039;-60
2023/04/08 00:14:57;;;;;;;16.98;10.60;;;;;;;;;;5075093;28;20045;-60
2023/04/08 00:17:23;;;;;;;12.88;10.20;;;;;;;;;;5075299;28;20082;-60
2023/04/08 00:19:49;;;;;;;10.65;9.50;;;;;;;;;;5075492;28;20482;-60
2023/04/08 00:22:15;;;;;;;12.75;10.10;;;;;;;;;;5075066;28;20029;-60
2023/04/08 00:24:41;;;;;;;10.55;8.00;;;;;;;;;;5075063;28;20074;-60
2023/04/08 00:27:07;;;;;;;11.77;9.75;;;;;;;;;;5075286;28;20085;-60
2023/04/08 00:29:33;;;;;;;14.00;10.05;;;;;;;;;;5075052;28;20029;-60
2023/04/08 00:31:59;;;;;;;11.00;7.97;;;;;;;;;;5074905;28;20118;-60
2023/04/08 00:34:25;;;;;;;12.35;8.88;;;;;;;;;;5074363;28;20028;-60
2023/04/08 00:36:51;;;;;;;12.05;9.45;;;;;;;;;;5075720;28;20115;-60
2023/04/08 00:39:17;;;;;;;17.02;10.85;;;;;;;;;;5074801;28;20067;-60
2023/04/08 00:41:43;;;;;;;15.27;9.70;;;;;;;;;;5074817;28;20048;-60
2023/04/08 00:44:10;;;;;;;13.65;9.20;;;;;;;;;;5074744;28;20035;-60
2023/04/08 00:46:38;;;;;;;10.57;8.50;;;;;;;;;;5075500;28;20032;-60
2023/04/08 00:49:04;;;;;;;12.38;9.00;;;;;;;;;;5074824;28;20447;-60
2023/04/08 00:51:30;;;;;;;13.07;9.02;;;;;;;;;;5074538;28;20425;-60
2023/04/08 00:53:57;;;;;;;14.25;10.18;;;;;;;;;;5074986;28;20132;-60
2023/04/08 00:56:23;;;;;;;11.57;8.15;;;;;;;;;;5075316;28;20063;-60
2023/04/08 00:58:53;;;;;;;13.80;10.20;;;;;;;;;;5075020;28;20048;-60
2023/04/08 01:01:30;;;;;;;11.05;9.27;;;;;;;;;;5075291;28;20078;-60
2023/04/08 01:04:06;;;;;;;14.68;10.48;;;;;;;;;;5074648;28;20034;-60
2023/04/08 01:06:41;;;;;;;11.30;9.13;;;;;;;;;;5074427;28;20021;-60
2023/04/08 01:09:08;;;;;;;13.07;9.43;;;;;;;;;;5074160;28;20024;-60
2023/04/08 01:11:35;;;;;;;12.98;10.43;;;;;;;;;;5074550;28;20108;-60
2023/04/08 01:14:04;;;;;;;14.93;10.48;;;;;;;;;;5074584;28;20083;-60
2023/04/08 01:16:30;;;;;;;16.20;11.63;;;;;;;;;;5074150;28;20029;-60
2023/04/08 01:18:56;;;;;;;12.68;10.73;;;;;;;;;;5074131;28;20059;-60
2023/04/08 01:21:23;;;;;;;15.07;9.45;;;;;;;;;;5074088;28;20557;-60
2023/04/08 01:23:49;;;;;;;12.82;9.45;;;;;;;;;;5074107;28;20024;-60
2023/04/08 01:26:21;;;;;;;11.50;8.75;;;;;;;;;;5074567;28;20354;-60
2023/04/08 01:28:48;;;;;;;10.27;8.90;;;;;;;;;;5074821;28;20028;-60
2023/04/08 01:31:15;;;;;;;11.98;9.20;;;;;;;;;;5074156;28;20132;-60
2023/04/08 01:33:42;;;;;;;12.70;10.57;;;;;;;;;;5073625;28;20043;-60
2023/04/08 01:36:08;;;;;;;14.50;10.00;;;;;;;;;;5074179;28;20036;-60
2023/04/08 01:38:35;;;;;;;12.40;9.15;;;;;;;;;;5073645;28;20033;-60
2023/04/08 01:41:02;;;;;;;11.43;9.02;;;;;;;;;;5074143;28;20021;-60
2023/04/08 01:43:28;;;;;;;13.93;9.00;;;;;;;;;;5072554;28;20474;-60
2023/04/08 01:45:56;;;;;;;10.98;9.15;;;;;;;;;;5073178;28;20052;-60
2023/04/08 01:48:23;;;;;;;10.10;8.02;;;;;;;;;;5074184;28;20359;-60
2023/04/08 01:50:50;;;;;;;11.70;8.68;;;;;;;;;;5073317;28;20043;-60
2023/04/08 01:53:16;;;;;;;10.38;7.18;;;;;;;;;;5074073;28;20036;-60
2023/04/08 01:55:45;;;;;;;11.27;7.60;;;;;;;;;;5074340;28;20031;-60
2023/04/08 01:58:11;;;;;;;8.65;7.22;;;;;;;;;;5074098;28;20402;-60
2023/04/08 02:00:39;;;;;;;10.50;8.43;;;;;;;;;;5073630;28;20031;-60
2023/04/08 02:03:06;;;;;;;11.15;7.22;;;;;;;;;;5073823;28;20043;-60
2023/04/08 02:05:33;;;;;;;12.95;8.32;;;;;;;;;;5074176;28;20021;-60
2023/04/08 02:07:59;;;;;;;9.77;8.43;;;;;;;;;;5073899;28;20029;-60
2023/04/08 02:10:25;;;;;;;9.98;8.60;;;;;;;;;;5073825;28;20016;-60
2023/04/08 02:12:51;;;;;;;10.05;8.02;;;;;;;;;;5073623;28;20071;-60
2023/04/08 02:15:17;;;;;;;12.07;8.52;;;;;;;;;;5073720;28;20076;-60
2023/04/08 02:17:45;;;;;;;11.18;9.38;;;;;;;;;;5073759;28;20067;-60
2023/04/08 02:20:19;;;;;;;12.68;8.75;;;;;;;;;;5073391;28;20033;-60
2023/04/08 02:22:49;;;;;;;12.05;8.55;;;;;;;;;;5073470;28;20033;-60
2023/04/08 02:25:17;;;;;;;12.10;8.23;;;;;;;;;;5074251;28;20025;-60
2023/04/08 02:27:44;;;;;;;9.48;7.07;;;;;;;;;;5073672;28;20037;-60
2023/04/08 02:30:11;;;;;;;11.18;9.07;;;;;;;;;;5073313;28;20025;-60
2023/04/08 02:32:37;;;;;;;10.65;8.27;;;;;;;;;;5073466;28;20478;-60
2023/04/08 02:35:04;;;;;;;10.88;8.02;;;;;;;;;;5073853;28;20021;-60
2023/04/08 02:37:31;;;;;;;11.70;8.57;;;;;;;;;;5073618;28;20021;-60
2023/04/08 02:39:57;;;;;;;11.15;8.13;;;;;;;;;;5073273;28;20016;-60
2023/04/08 02:42:23;;;;;;;12.70;8.10;;;;;;;;;;5073532;28;20463;-60
2023/04/08 02:44:50;;;;;;;8.82;7.53;;;;;;;;;;5073545;28;20032;-60
2023/04/08 02:47:16;;;;;;;9.50;7.60;;;;;;;;;;5073580;28;20031;-60
2023/04/08 02:49:42;;;;;;;14.80;9.23;;;;;;;;;;5073153;28;20024;-60
2023/04/08 02:52:08;;;;;;;17.65;8.32;;;;;;;;;;5073146;28;20029;-60
2023/04/08 02:54:34;;;;;;;16.27;10.18;;;;;;;;;;5073184;28;20094;-60
2023/04/08 02:57:01;;;;;;;10.07;8.45;;;;;;;;;;5074255;28;20068;-60
2023/04/08 02:59:27;;;;;;;16.13;10.75;;;;;;;;;;5076798;28;20024;-60
2023/04/08 03:01:53;;;;;;;11.98;8.85;;;;;;;;;;5076389;28;20028;-60
2023/04/08 03:04:19;;;;;;;12.35;9.27;;;;;;;;;;5076734;28;20454;-60
2023/04/08 03:06:45;;;;;;;14.57;9.98;;;;;;;;;;5076702;28;20374;-60
2023/04/08 03:09:11;;;;;;;12.18;8.70;;;;;;;;;;5076636;28;20371;-60
2023/04/08 03:11:37;;;;;;;14.07;8.25;;;;;;;;;;5076531;28;20106;-60
2023/04/08 03:14:02;;;;;;;17.88;10.23;;;;;;;;;;5076169;28;20053;-60
2023/04/08 03:16:28;;;;;;;15.63;9.27;;;;;;;;;;5076448;28;20031;-60
2023/04/08 03:18:54;;;;;;;13.55;9.80;;;;;;;;;;5076421;28;20032;-60
2023/04/08 03:21:20;;;;;;;11.32;8.45;;;;;;;;;;5076290;28;20103;-60
2023/04/08 03:23:46;;;;;;;12.10;8.45;;;;;;;;;;5076341;28;20056;-60
2023/04/08 03:26:12;;;;;;;13.05;8.93;;;;;;;;;;5076631;28;20373;-60
2023/04/08 03:28:38;;;;;;;12.70;8.70;;;;;;;;;;5075958;28;20379;-60
2023/04/08 03:31:04;;;;;;;10.73;8.65;;;;;;;;;;5075885;28;20036;-60
2023/04/08 03:33:30;;;;;;;11.80;8.75;;;;;;;;;;5076408;28;20366;-60
2023/04/08 03:35:56;;;;;;;12.20;8.25;;;;;;;;;;5075460;28;20132;-60
2023/04/08 03:38:22;;;;;;;12.32;8.65;;;;;;;;;;5075962;28;20382;-60
2023/04/08 03:40:48;;;;;;;11.27;8.18;;;;;;;;;;5076030;28;20028;-60
2023/04/08 03:43:14;;;;;;;9.23;7.38;;;;;;;;;;5076284;28;20374;-60
2023/04/08 03:45:40;;;;;;;16.70;9.52;;;;;;;;;;5076241;28;20123;-60
2023/04/08 03:48:07;;;;;;;10.70;7.95;;;;;;;;;;5076230;28;20104;-60
2023/04/08 03:50:33;;;;;;;9.68;7.70;;;;;;;;;;5075919;28;20025;-60
2023/04/08 03:52:59;;;;;;;12.95;9.13;;;;;;;;;;5076519;28;20032;-60
2023/04/08 03:55:25;;;;;;;11.13;8.32;;;;;;;;;;5075413;28;20031;-60
2023/04/08 03:57:51;;;;;;;12.93;8.93;;;;;;;;;;5075733;28;20020;-60
2023/04/08 04:00:17;;;;;;;15.27;9.50;;;;;;;;;;5076262;28;20032;-60
2023/04/08 04:02:42;;;;;;;11.98;8.95;;;;;;;;;;5075358;28;20028;-60
2023/04/08 04:05:09;;;;;;;9.75;7.13;;;;;;;;;;5076091;28;20074;-60
2023/04/08 04:07:35;;;;;;;8.90;6.97;;;;;;;;;;5075495;28;20028;-60
2023/04/08 04:10:01;;;;;;;10.75;8.82;;;;;;;;;;5074556;28;20435;-60
2023/04/08 04:12:26;;;;;;;10.80;8.23;;;;;;;;;;5075634;28;20032;-60
2023/04/08 04:14:52;;;;;;;11.88;8.40;;;;;;;;;;5075019;28;20083;-60
2023/04/08 04:17:18;;;;;;;10.23;6.43;;;;;;;;;;5075890;28;20059;-60
2023/04/08 04:19:44;;;;;;;10.00;7.88;;;;;;;;;;5075232;28;20028;-60
2023/04/08 04:22:10;;;;;;;10.10;7.57;;;;;;;;;;5075738;28;20052;-60
2023/04/08 04:24:36;;;;;;;11.50;8.48;;;;;;;;;;5075171;28;20359;-60
2023/04/08 04:27:02;;;;;;;14.63;7.85;;;;;;;;;;5075446;28;20025;-60
2023/04/08 04:29:30;;;;;;;9.50;8.18;;;;;;;;;;5075334;28;20485;-60
2023/04/08 04:31:56;;;;;;;11.93;9.68;;;;;;;;;;5074953;28;20043;-60
2023/04/08 04:34:22;;;;;;;11.65;9.23;;;;;;;;;;5075509;28;20025;-60
2023/04/08 04:36:48;;;;;;;14.35;8.50;;;;;;;;;;5075529;28;20032;-60
2023/04/08 04:39:14;;;;;;;13.27;9.77;;;;;;;;;;5074837;28;20381;-60
2023/04/08 04:41:40;;;;;;;13.38;9.70;;;;;;;;;;5075407;28;20051;-60
2023/04/08 04:44:06;;;;;;;11.07;7.72;;;;;;;;;;5075097;28;20029;-60
2023/04/08 04:46:32;;;;;;;12.68;9.10;;;;;;;;;;5074771;28;20051;-60
2023/04/08 04:48:58;;;;;;;12.73;10.07;;;;;;;;;;5075276;28;20036;-60
2023/04/08 04:51:25;;;;;;;13.68;8.38;;;;;;;;;;5074666;28;20051;-60
2023/04/08 04:53:51;;;;;;;14.80;10.68;;;;;;;;;;5074507;28;20042;-60
2023/04/08 04:56:17;;;;;;;11.68;9.00;;;;;;;;;;5074512;28;20480;-60
2023/04/08 04:58:43;;;;;;;11.02;8.90;;;;;;;;;;5074445;28;20119;-60
2023/04/08 05:01:09;;;;;;;12.45;8.90;;;;;;;;;;5074456;28;20021;-60
2023/04/08 05:03:35;;;;;;;13.63;9.40;;;;;;;;;;5073929;28;20423;-60
2023/04/08 05:06:01;;;;;;;11.63;9.63;;;;;;;;;;5075174;28;20111;-60
2023/04/08 05:08:27;;;;;;;11.80;8.85;;;;;;;;;;5074381;28;20036;-60
2023/04/08 05:10:54;;;;;;;13.90;9.40;;;;;;;;;;5074525;28;20032;-60
2023/04/08 05:13:21;;;;;;;13.55;9.80;;;;;;;;;;5074693;28;20040;-60
2023/04/08 05:15:47;;;;;;;11.30;10.15;;;;;;;;;;5074875;28;20055;-60
2023/04/08 05:18:13;;;;;;;8.90;6.93;;;;;;;;;;5074707;28;20032;-60
2023/04/08 05:20:39;;;;;;;12.25;10.38;;;;;;;;;;5073995;28;20107;-60
2023/04/08 05:23:06;;;;;;;13.40;9.95;;;;;;;;;;5074032;28;20410;-60
2023/04/08 05:25:32;;;;;;;14.82;9.88;;;;;;;;;;5074394;28;20028;-60
2023/04/08 05:27:58;;;;;;;15.68;10.95;;;;;;;;;;5074072;28;20473;-60
2023/04/08 05:30:24;;;;;;;14.32;10.75;;;;;;;;;;5074239;28;20064;-60
2023/04/08 05:32:50;;;;;;;12.63;9.95;;;;;;;;;;5074435;28;20059;-60
2023/04/08 05:35:16;;;;;;;15.32;10.98;;;;;;;;;;5074300;28;20451;-60
2023/04/08 05:37:42;;;;;;;16.95;11.02;;;;;;;;;;5073826;28;20351;-60
2023/04/08 05:40:08;;;;;;;13.35;10.40;;;;;;;;;;5074489;28;20443;-60
2023/04/08 05:42:34;;;;;;;10.52;8.98;;;;;;;;;;5073942;28;20040;-60
2023/04/08 05:45:00;;;;;;;19.17;11.32;;;;;;;;;;5073952;28;20029;-60
2023/04/08 05:47:26;;;;;;;13.27;11.02;;;;;;;;;;5073769;28;20039;-60
2023/04/08 05:49:52;;;;;;;14.73;11.52;;;;;;;;;;5073852;28;20438;-60
2023/04/08 05:52:18;;;;;;;13.55;11.70;;;;;;;;;;5073738;28;20094;-60
2023/04/08 05:54:45;;;;;;;17.52;11.30;;;;;;;;;;5073759;28;20029;-60
2023/04/08 05:57:11;;;;;;;13.88;12.05;;;;;;;;;;5074361;28;20029;-60
2023/04/08 05:59:37;;;;;;;14.10;11.85;;;;;;;;;;5073650;28;20029;-61
2023/04/08 06:02:03;;;;;;;14.52;12.93;;;;;;;;;;5073719;28;20024;-60
2023/04/08 06:04:29;;;;;;;12.05;9.23;;;;;;;;;;5073973;28;20074;-60
2023/04/08 06:06:58;;;;;;;16.67;11.27;;;;;;;;;;5074536;28;20028;-60
2023/04/08 06:09:24;;;;;;;16.60;12.23;;;;;;;;;;5074110;28;20028;-60
2023/04/08 06:11:50;;;;;;;12.45;10.70;;;;;;;;;;5073546;28;20112;-60
2023/04/08 06:14:16;;;;;;;15.05;11.73;;;;;;;;;;5073898;28;20136;-60
2023/04/08 06:16:42;;;;;;;13.18;11.18;;;;;;;;;;5073503;28;20032;-60
2023/04/08 06:19:08;;;;;;;11.48;10.15;;;;;;;;;;5074326;28;20343;-60
2023/04/08 06:21:34;;;;;;;15.80;10.40;;;;;;;;;;5073721;28;20029;-60
2023/04/08 06:24:00;;;;;;;14.73;12.13;;;;;;;;;;5073333;28;20086;-60
2023/04/08 06:26:26;;;;;;;18.25;12.75;;;;;;;;;;5073994;28;20029;-60
2023/04/08 06:28:52;;;;;;;17.08;10.93;;;;;;;;;;5073942;28;20073;-60
2023/04/08 06:31:18;;;;;;;13.68;11.57;;;;;;;;;;5073448;28;20074;-60
2023/04/08 06:33:44;;;;;;;13.25;11.30;;;;;;;;;;5076734;28;20060;-60
2023/04/08 06:36:12;;;;;;;16.20;11.60;;;;;;;;;;5077877;28;20115;-60
2023/04/08 06:38:38;;;;;;;16.08;10.50;;;;;;;;;;5077900;28;20028;-60
2023/04/08 06:41:07;;;;;;;16.85;12.18;;;;;;;;;;5076851;28;20485;-60
2023/04/08 06:43:34;;;;;;;17.35;12.73;;;;;;;;;;5076726;28;20470;-60
2023/04/08 06:46:00;;;;;;;16.70;12.80;;;;;;;;;;5077371;28;20027;-60
2023/04/08 06:48:29;;;;;;;17.95;12.80;;;;;;;;;;5076916;28;20055;-60
2023/04/08 06:50:59;;;;;;;16.17;12.90;;;;;;;;;;5076813;28;20025;-58
2023/04/08 06:53:26;;;;;;;20.53;11.40;;;;;;;;;;5076758;28;20025;-59
2023/04/08 06:55:52;;;;;;;13.82;11.55;;;;;;;;;;5077209;28;20261;-57
2023/04/08 06:58:18;;;;;;;16.48;11.18;;;;;;;;;;5076848;28;20024;-55
2023/04/08 07:00:44;;;;;;;13.90;11.50;;;;;;;;;;5076755;28;20040;-57
2023/04/08 07:03:10;;;;;;;12.85;10.10;;;;;;;;;;5077547;28;20028;-57
2023/04/08 07:05:37;;;;;;;14.13;10.80;;;;;;;;;;5077198;28;20052;-55
2023/04/08 07:08:03;;;;;;;13.10;9.88;;;;;;;;;;5076594;28;20086;-56
2023/04/08 07:10:29;;;;;;;13.70;9.65;;;;;;;;;;5076782;28;20103;-57
2023/04/08 07:12:55;;;;;;;12.70;9.75;;;;;;;;;;5076084;28;20028;-58
2023/04/08 07:15:21;;;;;;;13.82;10.68;;;;;;;;;;5076687;28;20056;-57
2023/04/08 07:17:47;;;;;;;13.85;10.20;;;;;;;;;;5076998;28;20039;-56
2023/04/08 07:20:13;;;;;;;13.93;10.07;;;;;;;;;;5076477;28;20024;-57
2023/04/08 07:22:39;;;;;;;14.02;9.35;;;;;;;;;;5076237;28;20035;-58
2023/04/08 07:25:06;;;;;;;11.20;8.85;;;;;;;;;;5076275;28;20082;-58
2023/04/08 07:27:35;;;;;;;14.02;10.73;;;;;;;;;;5076239;28;20063;-57
2023/04/08 07:30:01;;;;;;;14.32;10.88;;;;;;;;;;5075860;28;20052;-57
2023/04/08 07:32:27;;;;;;;17.92;11.43;;;;;;;;;;5076576;28;20028;-57
2023/04/08 07:34:53;;;;;;;13.68;10.70;;;;;;;;;;5076168;28;20181;-58
2023/04/08 07:37:19;;;;;;;13.00;9.05;;;;;;;;;;5076361;28;20028;-57
2023/04/08 07:39:45;;;;;;;13.90;8.90;;;;;;;;;;5076554;28;20393;-58
2023/04/08 07:42:11;;;;;;;12.98;9.68;;;;;;;;;;5076311;28;20430;-58
2023/04/08 07:44:37;;;;;;;16.00;9.15;;;;;;;;;;5075095;28;20029;-58
2023/04/08 07:47:03;;;;;;;13.70;10.00;;;;;;;;;;5076747;28;20020;-57
2023/04/08 07:49:29;;;;;;;10.38;9.05;;;;;;;;;;5075996;28;20020;-56
2023/04/08 07:51:56;;;;;;;12.07;9.70;;;;;;;;;;5075767;28;20082;-58
2023/04/08 07:54:22;;;;;;;11.00;9.32;;;;;;;;;;5075654;28;20079;-57
2023/04/08 07:56:48;;;;;;;12.13;8.93;;;;;;;;;;5076321;28;20462;-57
2023/04/08 07:59:14;;;;;;;14.23;9.63;;;;;;;;;;5075890;28;20031;-57
2023/04/08 08:01:40;;;;;;;10.80;8.60;;;;;;;;;;5075920;28;20020;-56
2023/04/08 08:04:06;;;;;;;15.10;10.82;;;;;;;;;;5075493;28;20506;-58
2023/04/08 08:06:32;;;;;;;12.82;9.35;;;;;;;;;;5075537;28;20025;-57
2023/04/08 08:08:58;;;;;;;13.02;9.55;;;;;;;;;;5075551;28;20036;-56
2023/04/08 08:11:26;;;;;;;10.82;9.27;;;;;;;;;;5075345;28;20035;-57
2023/04/08 08:13:52;;;;;;;12.35;8.82;;;;;;;;;;5075436;28;20052;-57
2023/04/08 08:16:18;;;;;;;11.63;9.20;;;;;;;;;;5075950;28;20028;-57
2023/04/08 08:18:44;;;;;;;16.48;10.98;;;;;;;;;;5075354;28;20093;-57
2023/04/08 08:21:10;;;;;;;10.82;9.20;;;;;;;;;;5075252;28;20103;-58
2023/04/08 08:23:36;;;;;;;11.85;9.30;;;;;;;;;;5075268;28;20071;-56
2023/04/08 08:26:03;;;;;;;10.57;8.23;;;;;;;;;;5076007;28;20033;-58
2023/04/08 08:28:47;;;;;;;11.48;9.05;;;;;;;;;;5075140;28;20032;-58
2023/04/08 08:31:13;;;;;;;10.80;8.07;;;;;;;;;;5075142;28;20036;-58
2023/04/08 08:33:39;;;;;;;12.75;9.27;;;;;;;;;;5074958;28;20438;-57
2023/04/08 08:36:06;;;;;;;11.77;9.38;;;;;;;;;;5075412;28;20039;-58
2023/04/08 08:38:32;;;;;;;13.20;8.32;;;;;;;;;;5074850;28;20020;-57
2023/04/08 08:40:58;;;;;;;12.38;8.95;;;;;;;;;;5074861;28;20078;-58
2023/04/08 08:43:25;;;;;;;13.60;8.75;;;;;;;;;;5074784;28;20033;-58
2023/04/08 08:45:51;;;;;;;10.20;8.95;;;;;;;;;;5075534;28;20029;-58
2023/04/08 08:48:17;;;;;;;13.52;9.43;;;;;;;;;;5075489;28;20028;-58
2023/04/08 08:50:43;;;;;;;9.60;7.30;;;;;;;;;;5074669;28;20411;-57
2023/04/08 08:53:09;;;;;;;11.25;9.63;;;;;;;;;;5075324;28;20033;-56
2023/04/08 08:55:35;;;;;;;10.65;7.85;;;;;;;;;;5074682;28;20454;-57
2023/04/08 08:58:01;;;;;;;13.85;9.88;;;;;;;;;;5075010;28;20028;-57
2023/04/08 09:00:33;;;;;;;11.35;8.80;;;;;;;;;;5074210;28;20421;-57
2023/04/08 09:03:17;;;;;;;10.52;8.30;;;;;;;;;;5074749;28;20028;-58
2023/04/08 09:05:53;;;;;;;11.48;9.30;;;;;;;;;;5074734;28;20192;-58
2023/04/08 09:08:23;;;;;;;9.95;8.77;;;;;;;;;;5074092;28;20488;-58
2023/04/08 09:10:49;;;;;;;11.63;10.10;;;;;;;;;;5074248;28;20028;-58
2023/04/08 09:13:15;;;;;;;10.48;9.27;;;;;;;;;;5074116;28;20028;-58
2023/04/08 09:16:00;;;;;;;10.27;9.15;;;;;;;;;;5074734;28;20066;-57
2023/04/08 09:18:26;;;;;;;13.35;9.85;;;;;;;;;;5073412;28;20020;-58
2023/04/08 09:20:52;;;;;;;11.02;9.55;;;;;;;;;;5073302;28;20100;-58
2023/04/08 09:23:18;;;;;;;9.98;8.38;;;;;;;;;;5073225;28;20115;-58
2023/04/08 09:25:45;;;;;;;10.98;9.82;;;;;;;;;;5073264;28;20025;-54
2023/04/08 09:28:20;;;;;;;11.32;8.77;;;;;;;;;;5073073;28;20035;-53
2023/04/08 09:30:46;;;;;;;9.93;8.90;;;;;;;;;;5073059;28;20017;-56
2023/04/08 09:33:13;;;;;;;9.52;8.27;;;;;;;;;;5073046;28;20078;-54
2023/04/08 09:35:39;;;;;;;11.55;9.20;;;;;;;;;;5073165;28;20078;-56
2023/04/08 09:38:05;;;;;;;9.75;8.85;;;;;;;;;;5072857;28;20414;-56
2023/04/08 09:40:35;;;;;;;9.82;8.77;;;;;;;;;;5073853;28;20028;-54
2023/04/08 09:43:04;;;;;;;8.95;8.05;;;;;;;;;;5073015;28;20037;-55
2023/04/08 09:45:33;;;;;;;12.88;10.15;;;;;;;;;;5074172;28;20067;-56
2023/04/08 09:48:22;;;;;;;10.05;8.73;;;;;;;;;;5072947;28;20494;-53
2023/04/08 09:50:49;;;;;;;11.10;9.35;;;;;;;;;;5073133;28;20032;-55
2023/04/08 09:53:36;;;;;;;10.90;9.02;;;;;;;;;;5073073;28;20064;-52
2023/04/08 09:56:06;;;;;;;9.98;8.65;;;;;;;;;;5073126;28;20035;-53
2023/04/08 09:58:32;;;;;;;;;;;;;;;;;;5072967;28;20085;-55
2023/04/08 10:00:58;;;;;;;11.52;9.88;;;;;;;;;;5071715;28;20003;-54
2023/04/08 10:03:28;;;;;;;9.55;7.80;;;;;;;;;;5073300;28;20123;-56
2023/04/08 10:05:58;;;;;;;11.95;9.98;;;;;;;;;;5072989;28;20031;-55
2023/04/08 10:08:25;;;;;;;11.80;9.55;;;;;;;;;;5075304;28;20131;-56
2023/04/08 10:10:51;;;;;;;11.07;9.25;;;;;;;;;;5076502;28;20029;-55
2023/04/08 10:13:18;;;;;;;10.82;8.70;;;;;;;;;;5076097;28;20119;-56
2023/04/08 10:15:46;;;;;;;12.77;8.95;;;;;;;;;;5041606;28;1046262;-56
2023/04/08 10:18:19;;;;;;;11.48;8.55;;;;;;;;;;5077512;28;20115;-56
2023/04/08 10:20:45;;;;;;;11.15;7.85;;;;;;;;;;5077537;28;20415;-56
2023/04/08 10:23:15;;;;;;;12.70;9.45;;;;;;;;;;5077456;28;20482;-55
2023/04/08 10:25:46;;;;;;;10.27;8.82;;;;;;;;;;5077068;28;20033;-56
2023/04/08 10:28:12;;;;;;;;;;;;;;;;;;5077851;28;20021;-56
2023/04/08 10:30:38;;;;;;;10.15;8.07;;;;;;;;;;5077810;28;20294;-56
2023/04/08 10:33:09;;;;;;;10.65;9.45;;;;;;;;;;5077410;28;20491;-53
2023/04/08 10:35:35;;;;;;;;;;;;;;;;;;5078100;28;20028;-55
2023/04/08 10:38:02;;;;;;;10.32;9.05;;;;;;;;;;5077271;28;19904;-53
2023/04/08 10:40:28;;;;;;;10.48;8.50;;;;;;;;;;5077070;28;20028;-54
2023/04/08 10:42:55;;;;;;;14.73;8.90;;;;;;;;;;5077095;28;20029;-54
2023/04/08 10:45:21;;;;;;;10.93;9.75;;;;;;;;;;5077844;28;20507;-55
2023/04/08 10:47:47;;;;;;;9.85;8.82;;;;;;;;;;5076967;28;20103;-56
2023/04/08 10:50:16;;;;;;;11.57;8.95;;;;;;;;;;5077014;28;20021;-56
2023/04/08 10:52:54;;;;;;;9.88;8.48;;;;;;;;;;5077087;28;20417;-55
2023/04/08 10:55:24;;;;;;;11.65;9.68;;;;;;;;;;5076753;28;20025;-55
2023/04/08 10:57:50;;;;;;;10.35;8.18;;;;;;;;;;5076801;28;20016;-54
2023/04/08 11:00:20;;;;;;;9.93;8.82;;;;;;;;;;5076837;28;20122;-56
2023/04/08 11:02:46;;;;;;;12.07;8.50;;;;;;;;;;5076653;28;20370;-52
2023/04/08 11:05:12;;;;;;;10.93;9.57;;;;;;;;;;5077014;28;20107;-54
2023/04/08 11:07:41;;;;;;;10.00;8.85;;;;;;;;;;5076689;28;20056;-55
2023/04/08 11:10:07;;;;;;;9.88;8.55;;;;;;;;;;5076647;28;20032;-55
2023/04/08 11:12:34;;;;;;;10.55;9.30;;;;;;;;;;5076498;28;20470;-56
2023/04/08 11:15:02;;;;;;;9.73;7.93;;;;;;;;;;5076021;28;20052;-56
2023/04/08 11:17:29;;;;;;;11.00;9.38;;;;;;;;;;5076946;28;20043;-56
2023/04/08 11:19:54;;;;;;;8.43;7.65;;;;;;;;;;5076979;28;20024;-57
2023/04/08 11:22:21;;;;;;;11.88;8.32;;;;;;;;;;5076611;28;20516;-55
2023/04/08 11:24:47;;;;;;;11.13;8.40;;;;;;;;;;5076377;28;20029;-56
2023/04/08 11:27:14;;;;;;;8.65;7.43;;;;;;;;;;5076309;28;20114;-56
2023/04/08 11:29:40;;;;;;;8.00;7.15;;;;;;;;;;5076748;28;20028;-55
2023/04/08 11:32:07;;;;;;;10.48;8.45;;;;;;;;;;5075778;28;20024;-54
2023/04/08 11:34:39;;;;;;;8.93;7.78;;;;;;;;;;5076673;28;20049;-54
2023/04/08 11:37:05;;;;;;;9.55;8.52;;;;;;;;;;5076222;28;20028;-53
2023/04/08 11:39:31;;;;;;;9.07;7.95;;;;;;;;;;5075962;28;20453;-56
2023/04/08 11:41:57;;;;;;;12.10;8.18;;;;;;;;;;5076054;28;20060;-55
2023/04/08 11:44:31;;;;;;;10.52;8.50;;;;;;;;;;5076524;28;20463;-56
2023/04/08 11:46:57;;;;;;;10.52;8.80;;;;;;;;;;5075982;28;20032;-55
2023/04/08 11:49:23;;;;;;;17.00;9.20;;;;;;;;;;5075967;28;20044;-54
2023/04/08 11:51:56;;;;;;;11.35;8.57;;;;;;;;;;5075576;28;20025;-57
2023/04/08 11:54:29;;;;;;;10.55;7.68;;;;;;;;;;5075805;28;20039;-57
2023/04/08 11:56:57;;;;;;;8.70;7.80;;;;;;;;;;5076443;28;20013;-57
2023/04/08 11:59:23;;;;;;;12.13;8.65;;;;;;;;;;5075484;28;20032;-55
2023/04/08 12:01:49;;;;;;;9.32;8.40;;;;;;;;;;5075839;28;20082;-55
2023/04/08 12:04:15;;;;;;;9.80;8.05;;;;;;;;;;5075520;28;20174;-56
2023/04/08 12:06:42;;;;;;;9.30;7.60;;;;;;;;;;5076358;28;20461;-53
2023/04/08 12:09:08;;;;;;;11.10;8.82;;;;;;;;;;5076047;28;20020;-53
2023/04/08 12:11:34;;;;;;;9.98;8.65;;;;;;;;;;5075459;28;20036;-54
2023/04/08 12:14:00;;;;;;;10.85;9.07;;;;;;;;;;5075876;28;20056;-55
2023/04/08 12:16:26;;;;;;;9.88;7.78;;;;;;;;;;5076224;28;20021;-57
2023/04/08 12:18:52;;;;;;;11.00;9.00;;;;;;;;;;5074932;28;20450;-53
2023/04/08 12:21:18;;;;;;;9.10;8.15;;;;;;;;;;5075478;28;20031;-56
2023/04/08 12:23:44;;;;;;;10.43;8.95;;;;;;;;;;5075276;28;20058;-53
2023/04/08 12:26:10;;;;;;;13.00;8.70;;;;;;;;;;5075181;28;20530;-53
2023/04/08 12:28:36;;;;;;;11.20;8.75;;;;;;;;;;5075055;28;20028;-54
2023/04/08 12:31:03;;;;;;;9.35;7.72;;;;;;;;;;5074342;28;20463;-55
2023/04/08 12:33:29;;;;;;;11.27;9.43;;;;;;;;;;5074566;28;20063;-55
2023/04/08 12:35:57;;;;;;;9.50;8.48;;;;;;;;;;5074643;28;20032;-54
2023/04/08 12:38:24;;;;;;;11.18;9.00;;;;;;;;;;5075639;28;20056;-56
2023/04/08 12:40:50;;;;;;;12.13;9.27;;;;;;;;;;5074812;28;20029;-55
2023/04/08 12:43:16;;;;;;;10.63;8.43;;;;;;;;;;5074793;28;20055;-56
2023/04/08 12:45:42;;;;;;;9.20;8.25;;;;;;;;;;5074695;28;20039;-55
2023/04/08 12:48:08;;;;;;;11.82;8.35;;;;;;;;;;5075187;28;20024;-53
2023/04/08 12:50:34;;;;;;;8.77;7.93;;;;;;;;;;5074626;28;20366;-53
2023/04/08 12:53:00;;;;;;;8.75;7.68;;;;;;;;;;5074599;28;20169;-54
2023/04/08 12:55:26;;;;;;;10.02;7.78;;;;;;;;;;5075346;28;20403;-54
2023/04/08 12:57:53;;;;;;;7.50;6.70;;;;;;;;;;5074417;28;20102;-55
2023/04/08 13:00:19;;;;;;;9.10;8.18;;;;;;;;;;5074439;28;20150;-56
2023/04/08 13:02:45;;;;;;;9.93;8.23;;;;;;;;;;5074775;28;20430;-55
2023/04/08 13:05:11;;;;;;;11.73;8.07;;;;;;;;;;5074956;28;20024;-56
2023/04/08 13:07:37;;;;;;;10.63;8.13;;;;;;;;;;5074211;28;20427;-54
2023/04/08 13:10:05;;;;;;;9.05;6.88;;;;;;;;;;5074297;28;20029;-55
2023/04/08 13:12:31;;;;;;;8.90;7.50;;;;;;;;;;5075006;28;20083;-55
2023/04/08 13:14:58;;;;;;;8.77;7.45;;;;;;;;;;5074217;28;20339;-56
2023/04/08 13:17:24;;;;;;;8.77;7.88;;;;;;;;;;5073859;28;20454;-55
2023/04/08 13:19:51;;;;;;;10.75;9.00;;;;;;;;;;5074145;28;20063;-53
2023/04/08 13:22:17;;;;;;;8.40;6.90;;;;;;;;;;5074586;28;20060;-55
2023/04/08 13:24:43;;;;;;;9.68;7.90;;;;;;;;;;5074625;28;20055;-56
2023/04/08 13:27:09;;;;;;;8.50;6.72;;;;;;;;;;5074633;28;20021;-54
2023/04/08 13:29:35;;;;;;;9.48;8.48;;;;;;;;;;5074636;28;20028;-55
2023/04/08 13:32:01;;;;;;;11.75;7.50;;;;;;;;;;5074341;28;20370;-56
2023/04/08 13:34:27;;;;;;;8.57;7.65;;;;;;;;;;5074210;28;20391;-53
2023/04/08 13:36:53;;;;;;;9.70;7.97;;;;;;;;;;5073982;28;20475;-56
2023/04/08 13:39:19;;;;;;;12.80;8.25;;;;;;;;;;5073777;28;20024;-54
2023/04/08 13:41:45;;;;;;;9.77;8.48;;;;;;;;;;5074319;28;20111;-55
2023/04/08 13:44:11;;;;;;;10.55;7.03;;;;;;;;;;5074168;28;20087;-52
2023/04/08 13:46:38;;;;;;;8.70;7.32;;;;;;;;;;5074105;28;20021;-53
2023/04/08 13:49:04;;;;;;;8.15;7.10;;;;;;;;;;5073136;28;20370;-55
2023/04/08 13:51:30;;;;;;;9.25;7.70;;;;;;;;;;5073721;28;20020;-56
2023/04/08 13:53:56;;;;;;;9.95;8.93;;;;;;;;;;5073570;28;20072;-56
2023/04/08 13:56:22;;;;;;;11.07;8.82;;;;;;;;;;5073717;28;20074;-50
2023/04/08 13:58:48;;;;;;;8.05;7.18;;;;;;;;;;5074041;28;20024;-54
2023/04/08 14:01:14;;;;;;;10.18;7.28;;;;;;;;;;5073738;28;20029;-51
2023/04/08 14:03:40;;;;;;;11.63;8.23;;;;;;;;;;5073625;28;20483;-53
2023/04/08 14:06:06;;;;;;;8.32;7.47;;;;;;;;;;5073944;28;20107;-53
2023/04/08 14:08:32;;;;;;;10.30;8.15;;;;;;;;;;5073205;28;20056;-55
2023/04/08 14:10:58;;;;;;;10.57;9.05;;;;;;;;;;5073493;28;20060;-52
2023/04/08 14:13:24;;;;;;;10.93;7.78;;;;;;;;;;5072797;28;20044;-57
2023/04/08 14:15:52;;;;;;;9.75;7.57;;;;;;;;;;5073790;28;20029;-53
2023/04/08 14:18:18;;;;;;;8.68;7.05;;;;;;;;;;5073771;28;20025;-55
2023/04/08 14:20:44;;;;;;;9.60;8.40;;;;;;;;;;5074158;28;20029;-55
2023/04/08 14:23:12;;;;;;;10.23;7.57;;;;;;;;;;5073476;28;20086;-53
2023/04/08 14:25:38;;;;;;;9.00;8.10;;;;;;;;;;5073488;28;20066;-53
2023/04/08 14:28:05;;;;;;;8.57;7.78;;;;;;;;;;5073490;28;20032;-54